DW2802 Ogijares ES current weather conditions

sailwx.info

Wind from 252

Air temperature 17.8° C
Dewpoint 10.4° C

Last reported at 2014-Sep-19 00:40 UTC.
Time now 2014-Sep-19 01:53 UTC

Location: N 37°07' W 003°36'.
View on Google Maps.

See reports from other nearby stations

  
Tides and Currents Weather Stations Pressure Air Temp Water Temp Dewpoint Dewpoint Depression Visibility Wind Speed Wind Dir Waves Ship Positions
date/time (UTC)wind fromknots sea level pressurealtimeterstation pressurevisibilityair tempwater tempwave heightnotes
2014-Sep-19 00:40 252 17.8
2014-Sep-19 00:25 188 19.4
2014-Sep-19 00:10 188 20.0
2014-Sep-18 23:55 196 2 gusting 9 20.0
2014-Sep-18 23:40 169 20.0
2014-Sep-18 23:25 180 2 gusting 14 20.0
2014-Sep-18 23:10 176 4 gusting 10 20.0
2014-Sep-18 22:55 197 8 gusting 17 20.0
2014-Sep-18 22:41 198 2 gusting 7 19.4
2014-Sep-18 22:24 190 19.4
2014-Sep-18 22:09 194 5 gusting 12 19.4
2014-Sep-18 21:54 182 5 gusting 8 19.4
2014-Sep-18 21:39 190 4 gusting 8 18.3
2014-Sep-18 21:24 190 17.2
2014-Sep-18 21:09 305 17.8
2014-Sep-18 20:54 305 18.3
2014-Sep-18 20:39 305 18.3
2014-Sep-18 20:24 304 18.9
2014-Sep-18 20:09 300 5 gusting 9 18.9
2014-Sep-18 19:54 305 3 gusting 12 20.0
2014-Sep-18 19:39 242 4 gusting 8 21.1
2014-Sep-18 19:24 203 4 gusting 9 21.1
2014-Sep-18 19:09 236 8 gusting 13 21.1
2014-Sep-18 18:54 239 9 gusting 13 21.7
2014-Sep-18 18:39 237 6 gusting 13 21.7
2014-Sep-18 18:24 229 6 gusting 11 21.7
2014-Sep-18 18:09 242 6 gusting 12 22.2
2014-Sep-18 17:54 231 5 gusting 11 22.8
2014-Sep-18 17:39 223 4 gusting 9 22.8
2014-Sep-18 17:09 252 5 gusting 12 23.3
2014-Sep-18 16:54 217 7 gusting 15 23.3
2014-Sep-18 16:39 232 9 gusting 15 23.3
2014-Sep-18 16:24 219 10 gusting 18 22.8
2014-Sep-18 16:09 244 10 gusting 20 23.3
2014-Sep-18 15:54 229 10 gusting 17 23.9
2014-Sep-18 15:39 203 7 gusting 14 24.4
2014-Sep-18 15:24 221 9 gusting 16 23.9
2014-Sep-18 15:09 223 8 gusting 17 23.9
2014-Sep-18 14:54 248 9 gusting 18 23.9
2014-Sep-18 14:39 241 5 gusting 15 23.9
2014-Sep-18 14:24 202 6 gusting 16 24.4
2014-Sep-18 14:09 213 8 gusting 16 24.4
2014-Sep-18 13:54 216 7 gusting 18 24.4
2014-Sep-18 13:39 228 8 gusting 18 23.9
2014-Sep-18 13:24 207 7 gusting 14 23.9
2014-Sep-18 13:09 246 9 gusting 17 23.9
2014-Sep-18 12:54 250 7 gusting 18 23.3
2014-Sep-18 12:39 256 7 gusting 14 23.9
2014-Sep-18 12:24 226 6 gusting 14 23.9
2014-Sep-18 12:09 245 8 gusting 13 23.3
2014-Sep-18 11:54 245 2 gusting 9 22.2
2014-Sep-18 11:39 313 0 gusting 6 22.2
2014-Sep-18 11:24 355 0 gusting 5 21.7
2014-Sep-18 11:09 333 21.7
2014-Sep-18 10:54 339 1 gusting 5 20.6
2014-Sep-18 10:38 336 4 gusting 9 20.6
2014-Sep-18 10:23 335 3 gusting 8 20.0
2014-Sep-18 10:08 312 1 gusting 6 20.0
2014-Sep-18 09:53 331 1 gusting 7 20.0
2014-Sep-18 09:38 360 2 gusting 6 20.0
2014-Sep-18 09:23 319 18.9
2014-Sep-18 09:08 335 0 gusting 4 18.9
2014-Sep-18 08:53 319 18.9
2014-Sep-18 08:38 309 18.9
2014-Sep-18 08:23 309 17.8
2014-Sep-18 08:08 308 17.2
2014-Sep-18 07:53 307 16.7
2014-Sep-18 07:38 307 15.6
2014-Sep-18 07:23 307 15.0
2014-Sep-18 07:08 307 13.9
2014-Sep-18 06:53 307 13.9
2014-Sep-18 06:38 313 13.3
2014-Sep-18 06:23 313 12.8
2014-Sep-18 06:08 313 13.3
2014-Sep-18 05:53 313 13.3
2014-Sep-18 05:38 313 13.3
2014-Sep-18 05:23 313 13.3
2014-Sep-18 05:08 315 13.3
2014-Sep-18 04:53 315 13.9
2014-Sep-18 04:38 314 13.9
2014-Sep-18 04:23 314 13.9
2014-Sep-18 04:08 314 13.9
2014-Sep-18 03:53 314 13.9
2014-Sep-18 03:37 315 14.4
2014-Sep-18 03:22 315 14.4
2014-Sep-18 03:07 315 14.4
2014-Sep-18 02:52 315 14.4
2014-Sep-18 02:37 315 15.0
2014-Sep-18 02:22 315 15.0
2014-Sep-18 02:07 315 15.0
2014-Sep-18 01:52 315 15.0
2014-Sep-18 01:37 315 15.0
2014-Sep-18 01:22 315 15.0
2014-Sep-18 01:07 315 15.6
2014-Sep-18 00:52 315 15.6
2014-Sep-18 00:37 315 15.6
2014-Sep-18 00:22 315 15.6
2014-Sep-18 00:07 315 15.6
2014-Sep-17 23:52 315 15.6
2014-Sep-17 23:37 315 16.1
2014-Sep-17 23:22 315 16.1
2014-Sep-17 23:07 315 16.1
2014-Sep-17 22:52 315 16.7
2014-Sep-17 22:37 315 16.7
2014-Sep-17 22:22 315 17.2
2014-Sep-17 22:07 315 17.2
2014-Sep-17 21:52 315 17.8
2014-Sep-17 21:37 315 17.8
2014-Sep-17 21:22 315 17.8
2014-Sep-17 21:07 315 18.3
2014-Sep-17 20:52 315 18.3
2014-Sep-17 20:37 315 18.3
2014-Sep-17 20:22 315 0 gusting 4 18.9
2014-Sep-17 20:07 323 0 gusting 4 18.9
2014-Sep-17 19:52 219 19.4
2014-Sep-17 19:37 219 20.0
2014-Sep-17 19:22 215 20.0
2014-Sep-17 19:07 202 20.0
2014-Sep-17 18:52 202 1 gusting 5 20.0
2014-Sep-17 18:37 198 4 gusting 8 20.6
2014-Sep-17 18:22 229 3 gusting 9 20.6
2014-Sep-17 18:07 211 0 gusting 8 21.1
2014-Sep-17 17:52 203 2 gusting 6 21.1
2014-Sep-17 17:37 223 2 gusting 8 21.1
2014-Sep-17 17:22 232 2 gusting 12 21.1
2014-Sep-17 17:07 223 6 gusting 10 21.1
2014-Sep-17 16:52 194 6 gusting 12 21.1
2014-Sep-17 16:37 225 6 gusting 12 21.1
2014-Sep-17 16:22 202 6 gusting 12 21.1
2014-Sep-17 16:07 201 8 gusting 15 21.7
2014-Sep-17 15:52 165 7 gusting 13 21.1
2014-Sep-17 15:36 214 6 gusting 14 20.6
2014-Sep-17 15:21 234 6 gusting 12 20.6
2014-Sep-17 15:06 234 7 gusting 10 20.6
2014-Sep-17 14:51 195 8 gusting 15 20.0
2014-Sep-17 14:36 193 9 gusting 16 20.6
2014-Sep-17 14:21 192 7 gusting 13 20.6
2014-Sep-17 14:06 236 8 gusting 13 20.6
2014-Sep-17 13:51 203 7 gusting 13 20.6
2014-Sep-17 13:36 236 5 gusting 18 20.6
2014-Sep-17 13:21 215 6 gusting 14 20.6
2014-Sep-17 13:06 223 12 gusting 18 20.6
2014-Sep-17 12:51 263 7 gusting 14 21.1
2014-Sep-17 12:36 231 6 gusting 17 21.1
2014-Sep-17 12:21 247 10 gusting 19 20.6
2014-Sep-17 12:06 252 9 gusting 13 21.1
2014-Sep-17 11:51 248 9 gusting 13 21.1
2014-Sep-17 11:36 236 6 gusting 13 21.7
2014-Sep-17 11:21 196 1 gusting 8 21.7
2014-Sep-17 11:06 194 3 gusting 8 21.7
2014-Sep-17 10:51 188 4 gusting 9 21.7
2014-Sep-17 10:36 229 4 gusting 9 21.7
2014-Sep-17 10:21 254 4 gusting 10 21.7
2014-Sep-17 10:06 276 6 gusting 12 21.1
2014-Sep-17 09:51 177 4 gusting 8 21.7
2014-Sep-17 09:36 164 3 gusting 10 21.7
2014-Sep-17 09:21 232 6 gusting 11 21.1
2014-Sep-17 09:06 205 7 gusting 12 21.1
2014-Sep-17 08:51 196 0 gusting 12 20.6
2014-Sep-17 08:36 184 0 gusting 6 20.0
2014-Sep-17 08:21 187 3 gusting 10 20.0
2014-Sep-17 08:06 189 6 gusting 12 20.0
2014-Sep-17 07:51 183 6 gusting 13 19.4
2014-Sep-17 07:36 167 6 gusting 10 18.9
2014-Sep-17 07:21 211 5 gusting 10 18.9
2014-Sep-17 07:06 197 4 gusting 10 18.9
2014-Sep-17 06:51 184 4 gusting 9 18.3
2014-Sep-17 06:36 195 3 gusting 8 18.3
2014-Sep-17 06:21 171 3 gusting 8 18.3
2014-Sep-17 06:06 182 4 gusting 10 18.3
2014-Sep-17 05:51 204 6 gusting 11 18.9
2014-Sep-17 05:36 219 5 gusting 10 18.9
2014-Sep-17 05:21 213 5 gusting 11 18.9
2014-Sep-17 05:05 229 5 gusting 10 18.9
2014-Sep-17 04:50 248 6 gusting 11 19.4
2014-Sep-17 04:35 251 0 gusting 8 20.0
2014-Sep-17 04:20 219 20.6
2014-Sep-17 04:05 216 6 gusting 10 20.6
2014-Sep-17 03:50 186 7 gusting 16 20.6
2014-Sep-17 03:35 195 4 gusting 9 20.6
2014-Sep-17 03:20 183 1 gusting 10 20.6
2014-Sep-17 03:05 184 6 gusting 11 20.6
2014-Sep-17 02:50 230 4 gusting 12 20.6
2014-Sep-17 02:35 195 5 gusting 10 20.6
2014-Sep-17 02:20 189 7 gusting 12 20.6
2014-Sep-17 02:05 190 6 gusting 14 20.6
2014-Sep-17 01:50 201 7 gusting 12 20.6
2014-Sep-17 01:35 197 6 gusting 18 21.1
2014-Sep-17 01:20 219 8 gusting 14 21.1
2014-Sep-17 01:05 195 6 gusting 17 21.1